createdAt,value
2018-04-10T00:02:36.601Z,48.58
2018-04-10T00:17:34.667Z,49.51
2018-04-10T00:32:34.608Z,50.33
2018-04-10T00:47:35.152Z,51.04
2018-04-10T01:02:34.586Z,51.84
2018-04-10T01:17:35.076Z,52.36
2018-04-10T01:32:33.848Z,53.29
2018-04-10T01:47:34.193Z,53.80
2018-04-10T02:02:34.788Z,54.54
2018-04-10T02:17:35.307Z,55.00
2018-04-10T02:32:34.667Z,55.62
2018-04-10T02:47:35.174Z,56.12
2018-04-10T03:02:35.072Z,56.73
2018-04-10T03:17:34.888Z,57.00
2018-04-10T03:32:36.472Z,57.25
2018-04-10T03:47:35.100Z,57.51
2018-04-10T04:02:37.731Z,71.31
2018-04-10T04:17:35.345Z,53.98
2018-04-10T04:32:35.772Z,49.60
2018-04-10T04:47:38.495Z,47.62
2018-04-10T05:02:36.940Z,45.49
2018-04-10T05:17:37.809Z,46.12
2018-04-10T05:47:38.305Z,46.40
2018-04-10T06:02:36.900Z,39.12
2018-04-10T06:17:34.876Z,33.51
2018-04-10T06:32:36.874Z,30.57
2018-04-10T06:47:34.832Z,30.12
2018-04-10T07:02:35.113Z,30.35
2018-04-10T07:17:35.046Z,29.04
2018-04-10T07:32:35.936Z,28.10
2018-04-10T07:47:34.877Z,27.77
2018-04-10T08:02:35.904Z,26.71
2018-04-10T08:17:36.165Z,26.31
2018-04-10T08:32:34.588Z,27.29
2018-04-10T08:47:34.474Z,26.20
2018-04-10T09:02:37.600Z,24.79
2018-04-10T09:17:37.379Z,24.30
2018-04-10T09:32:34.838Z,23.50
2018-04-10T09:47:38.222Z,23.36
2018-04-10T10:02:36.940Z,23.50
2018-04-10T10:32:39.917Z,23.64
2018-04-10T10:47:35.693Z,22.71
2018-04-10T11:02:37.430Z,22.00
2018-04-10T11:32:38.588Z,23.63
2018-04-10T11:47:35.298Z,23.77
2018-04-10T12:02:38.762Z,24.02
2018-04-10T12:17:35.819Z,25.38
2018-04-10T12:32:37.800Z,25.12
2018-04-10T12:47:38.804Z,25.50
2018-04-10T13:02:39.869Z,25.11
2018-04-10T13:17:39.266Z,24.82
2018-04-10T13:32:36.559Z,26.14
2018-04-10T13:47:34.964Z,26.50
2018-04-10T14:02:36.156Z,26.80
2018-04-10T15:02:46.646Z,27.56
2018-04-10T15:17:35.450Z,28.42
2018-04-10T15:32:36.160Z,28.82
2018-04-10T15:47:34.551Z,28.76
2018-04-10T16:02:35.308Z,29.46
2018-04-10T16:17:35.095Z,29.47
2018-04-10T16:32:35.623Z,30.55
2018-04-10T16:47:38.059Z,33.58
2018-04-10T17:02:36.629Z,32.98
2018-04-10T17:17:33.880Z,31.80
2018-04-10T17:32:36.724Z,31.60
2018-04-10T17:47:34.618Z,34.70
2018-04-10T18:02:35.092Z,36.54
2018-04-10T18:17:36.442Z,35.67
2018-04-10T18:47:44.447Z,35.81
2018-04-10T19:02:37.611Z,36.39
2018-04-10T19:17:19.261Z,37.35
2018-04-10T19:32:34.156Z,38.87
2018-04-10T19:47:34.768Z,40.11
2018-04-10T20:02:35.465Z,41.63
2018-04-10T20:17:35.413Z,42.07
2018-04-10T20:32:36.412Z,42.92
2018-04-10T20:47:40.679Z,43.63
2018-04-10T21:02:35.131Z,42.52
2018-04-10T21:17:35.617Z,42.72
2018-04-10T21:32:35.093Z,43.46
2018-04-10T21:47:33.732Z,44.26
2018-04-10T22:02:35.888Z,44.27
2018-04-10T22:17:34.848Z,44.68
2018-04-10T22:32:36.296Z,45.41
2018-04-10T22:47:37.690Z,45.15
2018-04-10T23:02:34.877Z,46.64
2018-04-10T23:17:33.973Z,47.27
2018-04-10T23:32:36.790Z,47.01
2018-04-10T23:47:35.415Z,47.48
